Hauptseite
METAR-TAF:

METAR-TAF

Flughäfen :

Flughafen Cochabamba

Cochabamba, Bolivien

Breite: 17-25S, Länge: 066-11W, Höhe: 2548 m

Beobachtung

Neuester Wetterbericht von vor 37 Minuten, um 10:00 UTC
Windstille
Temperatur 6°C
Luftfeuchtigkeit 70%
Luftdruck 1028 hPa
Sichtweite 10 km oder mehr

METAR: SLCB 221000Z 00000KT 9999 NSC 06/01 Q1028

Zeit: 06:37 (10:37 UTC)

Prognose

Neuester Wetterbericht von vor 6 Stunden und 37 Minuten, um 04:00 UTC
Gültige Prognose vom 22 um 06 UTC bis 23 um 06 UTC
Wind kt aus Nord
Sichtweite 10 km oder mehr
Übergehend zu
vom 22 um 17 UTC bis 22 um 19 UTC
Wind 12 kt aus West
Übergehend zu
vom 22 um 23 UTC bis 23 um 01 UTC
Wind 10 kt aus Südost
Übergehend zu
vom 23 um 03 UTC bis 23 um 05 UTC
Wind kt aus Nord

TAF: SLCB 220400Z 2206/2306 00000KT 9999 NSC TX25/2219Z TN03/2211Z BECMG 2217/2219 28012KT BECMG 2223/2301 13010KT BECMG 2303/2305 00000KT

Wetterbeobachtungen und Prognosen von mehr als 4000 Flughäfen (METAR und TAF Bericht).

Die verfügbaren Stationen werden durch gelbe und rote Markierungen auf der Karte dargestellt.

Führen Sie die Maus auf sie, um den Namen der Station zu sehen.

Darauf klicken, um die Beobachtung von Wetterbeobachtungen und Prognosen zu sehen.

Um die Karte zu ändern : klicken Sie auf den grünen Tasten mit einem schwarzen Kreuz Zum Vergrößern, auf den grünen Button mit einem Gedankenstrich zu verkleinern, oder auf die grünen Pfeile für benachbarte Karten.


METAR-TAF: